sensor_id;sensor_type;location;lat;lon;timestamp;P1;durP1;ratioP1;P2;durP2;ratioP2
7493;SDS011;3788;49.902;8.590;2023-01-16T00:01:19;3.03;;;1.67;;
7493;SDS011;3788;49.902;8.590;2023-01-16T00:03:45;3.40;;;1.80;;
7493;SDS011;3788;49.902;8.590;2023-01-16T00:06:12;2.83;;;1.90;;
7493;SDS011;3788;49.902;8.590;2023-01-16T00:08:40;3.57;;;1.70;;
7493;SDS011;3788;49.902;8.590;2023-01-16T00:11:09;2.73;;;1.20;;
7493;SDS011;3788;49.902;8.590;2023-01-16T00:13:36;1.83;;;1.13;;
7493;SDS011;3788;49.902;8.590;2023-01-16T00:16:04;2.47;;;1.30;;
7493;SDS011;3788;49.902;8.590;2023-01-16T00:18:31;3.60;;;1.97;;
7493;SDS011;3788;49.902;8.590;2023-01-16T00:20:58;4.87;;;1.30;;
7493;SDS011;3788;49.902;8.590;2023-01-16T00:23:25;2.60;;;1.80;;
7493;SDS011;3788;49.902;8.590;2023-01-16T00:25:52;4.40;;;1.70;;
7493;SDS011;3788;49.902;8.590;2023-01-16T00:28:20;4.20;;;2.00;;
7493;SDS011;3788;49.902;8.590;2023-01-16T00:30:46;2.60;;;1.53;;
7493;SDS011;3788;49.902;8.590;2023-01-16T00:33:13;3.53;;;1.90;;
7493;SDS011;3788;49.902;8.590;2023-01-16T00:35:41;2.20;;;1.60;;
7493;SDS011;3788;49.902;8.590;2023-01-16T00:38:08;3.33;;;1.60;;
7493;SDS011;3788;49.902;8.590;2023-01-16T00:40:34;2.90;;;1.70;;
7493;SDS011;3788;49.902;8.590;2023-01-16T00:43:01;3.43;;;1.90;;
7493;SDS011;3788;49.902;8.590;2023-01-16T00:45:29;5.30;;;2.00;;
7493;SDS011;3788;49.902;8.590;2023-01-16T00:47:56;5.77;;;1.87;;
7493;SDS011;3788;49.902;8.590;2023-01-16T00:50:23;2.10;;;1.40;;
7493;SDS011;3788;49.902;8.590;2023-01-16T00:52:50;3.87;;;1.87;;
7493;SDS011;3788;49.902;8.590;2023-01-16T00:55:16;3.10;;;1.50;;
7493;SDS011;3788;49.902;8.590;2023-01-16T00:57:43;2.30;;;1.57;;
7493;SDS011;3788;49.902;8.590;2023-01-16T01:00:10;3.17;;;1.70;;
7493;SDS011;3788;49.902;8.590;2023-01-16T01:02:38;4.17;;;1.40;;
7493;SDS011;3788;49.902;8.590;2023-01-16T01:05:05;4.07;;;2.27;;
7493;SDS011;3788;49.902;8.590;2023-01-16T01:07:32;4.07;;;1.87;;
7493;SDS011;3788;49.902;8.590;2023-01-16T01:09:59;3.97;;;1.70;;
7493;SDS011;3788;49.902;8.590;2023-01-16T01:12:26;6.73;;;1.90;;
7493;SDS011;3788;49.902;8.590;2023-01-16T01:14:53;5.23;;;2.10;;
7493;SDS011;3788;49.902;8.590;2023-01-16T01:17:19;3.20;;;1.80;;
7493;SDS011;3788;49.902;8.590;2023-01-16T01:19:47;4.43;;;2.37;;
7493;SDS011;3788;49.902;8.590;2023-01-16T01:22:14;3.70;;;1.87;;
7493;SDS011;3788;49.902;8.590;2023-01-16T01:24:41;4.13;;;1.90;;
7493;SDS011;3788;49.902;8.590;2023-01-16T01:27:09;2.80;;;1.73;;
7493;SDS011;3788;49.902;8.590;2023-01-16T01:29:35;2.17;;;1.70;;
7493;SDS011;3788;49.902;8.590;2023-01-16T01:32:02;4.53;;;2.00;;
7493;SDS011;3788;49.902;8.590;2023-01-16T01:34:30;1.83;;;1.20;;
7493;SDS011;3788;49.902;8.590;2023-01-16T01:37:00;2.80;;;1.50;;
7493;SDS011;3788;49.902;8.590;2023-01-16T01:39:27;4.50;;;1.83;;
7493;SDS011;3788;49.902;8.590;2023-01-16T01:41:54;5.50;;;1.50;;
7493;SDS011;3788;49.902;8.590;2023-01-16T01:44:45;5.37;;;1.70;;
7493;SDS011;3788;49.902;8.590;2023-01-16T01:47:16;5.90;;;1.23;;
7493;SDS011;3788;49.902;8.590;2023-01-16T01:49:45;3.57;;;1.30;;
7493;SDS011;3788;49.902;8.590;2023-01-16T01:52:15;3.93;;;1.40;;
7493;SDS011;3788;49.902;8.590;2023-01-16T01:54:45;4.63;;;1.47;;
7493;SDS011;3788;49.902;8.590;2023-01-16T01:57:15;2.90;;;1.20;;
7493;SDS011;3788;49.902;8.590;2023-01-16T01:59:48;2.40;;;1.40;;
7493;SDS011;3788;49.902;8.590;2023-01-16T02:02:19;1.80;;;1.30;;
7493;SDS011;3788;49.902;8.590;2023-01-16T02:04:49;2.07;;;1.37;;
7493;SDS011;3788;49.902;8.590;2023-01-16T02:07:23;1.40;;;1.30;;
7493;SDS011;3788;49.902;8.590;2023-01-16T02:09:53;3.17;;;1.23;;
7493;SDS011;3788;49.902;8.590;2023-01-16T02:12:27;3.33;;;1.20;;
7493;SDS011;3788;49.902;8.590;2023-01-16T02:14:54;4.13;;;1.00;;
7493;SDS011;3788;49.902;8.590;2023-01-16T02:17:23;3.13;;;1.67;;
7493;SDS011;3788;49.902;8.590;2023-01-16T02:20:14;3.50;;;1.50;;
7493;SDS011;3788;49.902;8.590;2023-01-16T02:25:58;2.83;;;1.47;;
7493;SDS011;3788;49.902;8.590;2023-01-16T02:29:05;3.40;;;1.43;;
7493;SDS011;3788;49.902;8.590;2023-01-16T02:31:56;2.37;;;1.10;;
7493;SDS011;3788;49.902;8.590;2023-01-16T02:34:34;3.30;;;1.20;;
7493;SDS011;3788;49.902;8.590;2023-01-16T02:37:25;2.93;;;1.63;;
7493;SDS011;3788;49.902;8.590;2023-01-16T02:40:04;1.13;;;1.03;;
7493;SDS011;3788;49.902;8.590;2023-01-16T02:42:42;3.73;;;1.80;;
7493;SDS011;3788;49.902;8.590;2023-01-16T02:45:14;1.73;;;1.10;;
7493;SDS011;3788;49.902;8.590;2023-01-16T02:47:50;5.10;;;1.37;;
7493;SDS011;3788;49.902;8.590;2023-01-16T02:50:26;2.10;;;1.20;;
7493;SDS011;3788;49.902;8.590;2023-01-16T02:52:57;4.27;;;1.20;;
7493;SDS011;3788;49.902;8.590;2023-01-16T02:55:31;2.33;;;1.13;;
7493;SDS011;3788;49.902;8.590;2023-01-16T02:58:02;2.63;;;1.20;;
7493;SDS011;3788;49.902;8.590;2023-01-16T03:00:31;2.80;;;1.67;;
7493;SDS011;3788;49.902;8.590;2023-01-16T03:03:01;1.73;;;1.43;;
7493;SDS011;3788;49.902;8.590;2023-01-16T03:05:31;2.10;;;1.13;;
7493;SDS011;3788;49.902;8.590;2023-01-16T03:11:12;1.33;;;0.90;;
7493;SDS011;3788;49.902;8.590;2023-01-16T03:13:54;4.43;;;1.70;;
7493;SDS011;3788;49.902;8.590;2023-01-16T03:16:30;2.23;;;1.03;;
7493;SDS011;3788;49.902;8.590;2023-01-16T03:19:07;1.47;;;1.00;;
7493;SDS011;3788;49.902;8.590;2023-01-16T03:21:45;3.67;;;1.00;;
7493;SDS011;3788;49.902;8.590;2023-01-16T03:24:25;4.10;;;1.00;;
7493;SDS011;3788;49.902;8.590;2023-01-16T03:26:58;2.40;;;1.40;;
7493;SDS011;3788;49.902;8.590;2023-01-16T03:29:35;2.77;;;1.20;;
7493;SDS011;3788;49.902;8.590;2023-01-16T03:32:07;3.53;;;1.20;;
7493;SDS011;3788;49.902;8.590;2023-01-16T03:34:40;2.30;;;1.10;;
7493;SDS011;3788;49.902;8.590;2023-01-16T03:37:13;1.30;;;1.20;;
7493;SDS011;3788;49.902;8.590;2023-01-16T03:39:46;1.07;;;1.00;;
7493;SDS011;3788;49.902;8.590;2023-01-16T03:42:17;2.03;;;1.20;;
7493;SDS011;3788;49.902;8.590;2023-01-16T03:44:50;1.77;;;1.17;;
7493;SDS011;3788;49.902;8.590;2023-01-16T03:47:19;6.37;;;1.40;;
7493;SDS011;3788;49.902;8.590;2023-01-16T03:49:51;2.20;;;1.00;;
7493;SDS011;3788;49.902;8.590;2023-01-16T03:52:22;2.20;;;1.10;;
7493;SDS011;3788;49.902;8.590;2023-01-16T03:54:55;4.00;;;1.43;;
7493;SDS011;3788;49.902;8.590;2023-01-16T03:57:29;3.17;;;1.10;;
7493;SDS011;3788;49.902;8.590;2023-01-16T03:59:59;1.47;;;1.20;;
7493;SDS011;3788;49.902;8.590;2023-01-16T04:02:27;1.70;;;1.00;;
7493;SDS011;3788;49.902;8.590;2023-01-16T04:05:01;1.67;;;1.10;;
7493;SDS011;3788;49.902;8.590;2023-01-16T04:07:32;2.67;;;1.40;;
7493;SDS011;3788;49.902;8.590;2023-01-16T04:10:04;4.57;;;1.47;;
7493;SDS011;3788;49.902;8.590;2023-01-16T04:12:35;5.17;;;1.73;;
7493;SDS011;3788;49.902;8.590;2023-01-16T04:15:05;3.43;;;1.20;;
7493;SDS011;3788;49.902;8.590;2023-01-16T04:17:33;3.60;;;1.20;;
7493;SDS011;3788;49.902;8.590;2023-01-16T04:20:03;1.60;;;1.20;;
7493;SDS011;3788;49.902;8.590;2023-01-16T04:22:31;1.80;;;1.10;;
7493;SDS011;3788;49.902;8.590;2023-01-16T04:24:59;3.00;;;1.30;;
7493;SDS011;3788;49.902;8.590;2023-01-16T04:27:29;2.47;;;1.27;;
7493;SDS011;3788;49.902;8.590;2023-01-16T04:29:56;2.17;;;1.07;;
7493;SDS011;3788;49.902;8.590;2023-01-16T04:32:22;3.83;;;1.00;;
7493;SDS011;3788;49.902;8.590;2023-01-16T04:34:49;1.97;;;1.30;;
7493;SDS011;3788;49.902;8.590;2023-01-16T04:37:17;1.37;;;1.00;;
7493;SDS011;3788;49.902;8.590;2023-01-16T04:39:44;2.50;;;1.90;;
7493;SDS011;3788;49.902;8.590;2023-01-16T04:42:12;2.43;;;1.00;;
7493;SDS011;3788;49.902;8.590;2023-01-16T04:44:39;3.13;;;1.30;;
7493;SDS011;3788;49.902;8.590;2023-01-16T04:47:06;4.10;;;2.00;;
7493;SDS011;3788;49.902;8.590;2023-01-16T04:49:33;2.47;;;1.20;;
7493;SDS011;3788;49.902;8.590;2023-01-16T04:51:59;1.90;;;0.90;;
7493;SDS011;3788;49.902;8.590;2023-01-16T04:54:27;4.23;;;1.17;;
7493;SDS011;3788;49.902;8.590;2023-01-16T04:56:54;2.07;;;0.90;;
7493;SDS011;3788;49.902;8.590;2023-01-16T04:59:21;2.47;;;1.17;;
7493;SDS011;3788;49.902;8.590;2023-01-16T05:01:47;2.90;;;1.30;;
7493;SDS011;3788;49.902;8.590;2023-01-16T05:04:14;2.53;;;0.97;;
7493;SDS011;3788;49.902;8.590;2023-01-16T05:06:42;2.07;;;0.80;;
7493;SDS011;3788;49.902;8.590;2023-01-16T05:09:09;4.13;;;1.27;;
7493;SDS011;3788;49.902;8.590;2023-01-16T05:11:37;2.57;;;1.13;;
7493;SDS011;3788;49.902;8.590;2023-01-16T05:14:04;4.87;;;1.63;;
7493;SDS011;3788;49.902;8.590;2023-01-16T05:16:32;1.33;;;0.97;;
7493;SDS011;3788;49.902;8.590;2023-01-16T05:19:00;2.00;;;1.20;;
7493;SDS011;3788;49.902;8.590;2023-01-16T05:21:26;2.30;;;1.10;;
7493;SDS011;3788;49.902;8.590;2023-01-16T05:23:53;2.30;;;1.20;;
7493;SDS011;3788;49.902;8.590;2023-01-16T05:26:20;2.10;;;1.20;;
7493;SDS011;3788;49.902;8.590;2023-01-16T05:28:48;1.77;;;1.13;;
7493;SDS011;3788;49.902;8.590;2023-01-16T05:31:15;1.33;;;1.23;;
7493;SDS011;3788;49.902;8.590;2023-01-16T05:33:41;1.90;;;1.30;;
7493;SDS011;3788;49.902;8.590;2023-01-16T05:36:08;1.73;;;1.00;;
7493;SDS011;3788;49.902;8.590;2023-01-16T05:38:35;4.63;;;1.40;;
7493;SDS011;3788;49.902;8.590;2023-01-16T05:41:02;1.80;;;1.10;;
7493;SDS011;3788;49.902;8.590;2023-01-16T05:43:29;3.43;;;1.10;;
7493;SDS011;3788;49.902;8.590;2023-01-16T05:45:57;4.17;;;1.40;;
7493;SDS011;3788;49.902;8.590;2023-01-16T05:48:23;5.87;;;1.10;;
7493;SDS011;3788;49.902;8.590;2023-01-16T05:50:51;4.03;;;1.00;;
7493;SDS011;3788;49.902;8.590;2023-01-16T05:53:17;3.53;;;1.20;;
7493;SDS011;3788;49.902;8.590;2023-01-16T05:55:45;2.83;;;1.07;;
7493;SDS011;3788;49.902;8.590;2023-01-16T05:58:13;3.37;;;1.10;;
7493;SDS011;3788;49.902;8.590;2023-01-16T06:00:40;1.00;;;0.90;;
7493;SDS011;3788;49.902;8.590;2023-01-16T06:03:09;2.03;;;1.10;;
7493;SDS011;3788;49.902;8.590;2023-01-16T06:05:35;3.20;;;0.97;;
7493;SDS011;3788;49.902;8.590;2023-01-16T06:08:03;3.23;;;1.17;;
7493;SDS011;3788;49.902;8.590;2023-01-16T06:10:30;2.07;;;1.20;;
7493;SDS011;3788;49.902;8.590;2023-01-16T06:12:57;2.87;;;0.90;;
7493;SDS011;3788;49.902;8.590;2023-01-16T06:15:25;2.10;;;1.37;;
7493;SDS011;3788;49.902;8.590;2023-01-16T06:17:52;3.73;;;0.97;;
7493;SDS011;3788;49.902;8.590;2023-01-16T06:20:20;1.43;;;1.00;;
7493;SDS011;3788;49.902;8.590;2023-01-16T06:22:47;0.90;;;0.70;;
7493;SDS011;3788;49.902;8.590;2023-01-16T06:25:14;1.33;;;0.97;;
7493;SDS011;3788;49.902;8.590;2023-01-16T06:27:40;1.50;;;0.90;;
7493;SDS011;3788;49.902;8.590;2023-01-16T06:30:07;1.10;;;1.00;;
7493;SDS011;3788;49.902;8.590;2023-01-16T06:32:35;0.93;;;0.80;;
7493;SDS011;3788;49.902;8.590;2023-01-16T06:35:02;1.87;;;0.80;;
7493;SDS011;3788;49.902;8.590;2023-01-16T06:37:31;2.57;;;0.90;;
7493;SDS011;3788;49.902;8.590;2023-01-16T06:39:57;1.20;;;1.00;;
7493;SDS011;3788;49.902;8.590;2023-01-16T06:42:25;2.47;;;0.73;;
7493;SDS011;3788;49.902;8.590;2023-01-16T06:44:52;1.87;;;0.80;;
7493;SDS011;3788;49.902;8.590;2023-01-16T06:47:18;0.97;;;0.87;;
7493;SDS011;3788;49.902;8.590;2023-01-16T06:49:45;1.77;;;0.87;;
7493;SDS011;3788;49.902;8.590;2023-01-16T06:52:12;1.63;;;1.53;;
7493;SDS011;3788;49.902;8.590;2023-01-16T06:54:40;1.63;;;0.90;;
7493;SDS011;3788;49.902;8.590;2023-01-16T06:59:35;1.10;;;0.90;;
7493;SDS011;3788;49.902;8.590;2023-01-16T07:02:01;2.43;;;1.13;;
7493;SDS011;3788;49.902;8.590;2023-01-16T07:04:28;1.10;;;1.00;;
7493;SDS011;3788;49.902;8.590;2023-01-16T07:06:55;3.50;;;1.02;;
7493;SDS011;3788;49.902;8.590;2023-01-16T07:09:21;1.40;;;0.80;;
7493;SDS011;3788;49.902;8.590;2023-01-16T07:11:54;2.53;;;0.87;;
7493;SDS011;3788;49.902;8.590;2023-01-16T07:14:21;2.80;;;1.00;;
7493;SDS011;3788;49.902;8.590;2023-01-16T07:17:05;1.57;;;1.00;;
7493;SDS011;3788;49.902;8.590;2023-01-16T07:19:51;2.90;;;1.07;;
7493;SDS011;3788;49.902;8.590;2023-01-16T07:22:35;1.20;;;0.93;;
7493;SDS011;3788;49.902;8.590;2023-01-16T07:25:04;1.47;;;0.80;;
7493;SDS011;3788;49.902;8.590;2023-01-16T07:27:36;2.23;;;1.00;;
7493;SDS011;3788;49.902;8.590;2023-01-16T07:30:04;2.23;;;1.20;;
7493;SDS011;3788;49.902;8.590;2023-01-16T07:32:33;1.00;;;0.90;;
7493;SDS011;3788;49.902;8.590;2023-01-16T07:35:00;1.77;;;0.93;;
7493;SDS011;3788;49.902;8.590;2023-01-16T07:37:27;1.40;;;1.00;;
7493;SDS011;3788;49.902;8.590;2023-01-16T07:39:54;2.10;;;0.90;;
7493;SDS011;3788;49.902;8.590;2023-01-16T07:42:21;2.87;;;1.13;;
7493;SDS011;3788;49.902;8.590;2023-01-16T07:44:49;1.23;;;0.87;;
7493;SDS011;3788;49.902;8.590;2023-01-16T07:47:16;1.17;;;0.80;;
7493;SDS011;3788;49.902;8.590;2023-01-16T07:49:42;1.77;;;0.87;;
7493;SDS011;3788;49.902;8.590;2023-01-16T07:52:09;1.37;;;0.83;;
7493;SDS011;3788;49.902;8.590;2023-01-16T07:54:36;1.10;;;0.90;;
7493;SDS011;3788;49.902;8.590;2023-01-16T07:57:05;1.03;;;0.87;;
7493;SDS011;3788;49.902;8.590;2023-01-16T07:59:32;3.13;;;0.77;;
7493;SDS011;3788;49.902;8.590;2023-01-16T08:02:00;2.50;;;0.73;;
7493;SDS011;3788;49.902;8.590;2023-01-16T08:04:27;2.63;;;1.10;;
7493;SDS011;3788;49.902;8.590;2023-01-16T08:06:54;1.30;;;0.80;;
7493;SDS011;3788;49.902;8.590;2023-01-16T08:09:21;1.47;;;0.90;;
7493;SDS011;3788;49.902;8.590;2023-01-16T08:11:48;2.17;;;1.00;;
7493;SDS011;3788;49.902;8.590;2023-01-16T08:14:15;2.03;;;0.83;;
7493;SDS011;3788;49.902;8.590;2023-01-16T08:16:42;2.63;;;0.90;;
7493;SDS011;3788;49.902;8.590;2023-01-16T08:19:10;1.93;;;0.93;;
7493;SDS011;3788;49.902;8.590;2023-01-16T08:21:37;1.60;;;1.17;;
7493;SDS011;3788;49.902;8.590;2023-01-16T08:24:04;1.97;;;0.90;;
7493;SDS011;3788;49.902;8.590;2023-01-16T08:26:31;1.57;;;1.20;;
7493;SDS011;3788;49.902;8.590;2023-01-16T08:28:58;1.57;;;0.80;;
7493;SDS011;3788;49.902;8.590;2023-01-16T08:31:27;1.60;;;0.80;;
7493;SDS011;3788;49.902;8.590;2023-01-16T08:33:54;2.43;;;1.03;;
7493;SDS011;3788;49.902;8.590;2023-01-16T08:36:23;1.83;;;1.13;;
7493;SDS011;3788;49.902;8.590;2023-01-16T08:38:50;2.37;;;1.00;;
7493;SDS011;3788;49.902;8.590;2023-01-16T08:41:17;1.10;;;0.80;;
7493;SDS011;3788;49.902;8.590;2023-01-16T08:44:02;2.20;;;0.90;;
7493;SDS011;3788;49.902;8.590;2023-01-16T08:46:49;1.17;;;0.70;;
7493;SDS011;3788;49.902;8.590;2023-01-16T08:49:38;3.67;;;0.97;;
7493;SDS011;3788;49.902;8.590;2023-01-16T08:52:23;1.40;;;1.00;;
7493;SDS011;3788;49.902;8.590;2023-01-16T08:54:52;1.80;;;1.00;;
7493;SDS011;3788;49.902;8.590;2023-01-16T08:57:18;1.80;;;1.10;;
7493;SDS011;3788;49.902;8.590;2023-01-16T08:59:45;3.27;;;1.10;;
7493;SDS011;3788;49.902;8.590;2023-01-16T09:02:12;1.17;;;0.90;;
7493;SDS011;3788;49.902;8.590;2023-01-16T09:04:39;2.00;;;1.10;;
7493;SDS011;3788;49.902;8.590;2023-01-16T09:07:06;1.17;;;0.80;;
7493;SDS011;3788;49.902;8.590;2023-01-16T09:09:34;1.67;;;0.80;;
7493;SDS011;3788;49.902;8.590;2023-01-16T09:12:01;1.03;;;1.00;;
7493;SDS011;3788;49.902;8.590;2023-01-16T09:14:45;2.10;;;0.80;;
7493;SDS011;3788;49.902;8.590;2023-01-16T09:17:11;2.40;;;1.30;;
7493;SDS011;3788;49.902;8.590;2023-01-16T09:19:38;1.23;;;1.00;;
7493;SDS011;3788;49.902;8.590;2023-01-16T09:22:05;1.67;;;1.23;;
7493;SDS011;3788;49.902;8.590;2023-01-16T09:24:34;1.73;;;1.20;;
7493;SDS011;3788;49.902;8.590;2023-01-16T09:27:01;1.20;;;1.00;;
7493;SDS011;3788;49.902;8.590;2023-01-16T09:29:29;2.00;;;1.30;;
7493;SDS011;3788;49.902;8.590;2023-01-16T09:31:56;1.93;;;1.40;;
7493;SDS011;3788;49.902;8.590;2023-01-16T09:34:23;2.17;;;1.40;;
7493;SDS011;3788;49.902;8.590;2023-01-16T09:36:50;2.13;;;1.00;;
7493;SDS011;3788;49.902;8.590;2023-01-16T09:39:17;2.73;;;1.80;;
7493;SDS011;3788;49.902;8.590;2023-01-16T09:41:48;2.00;;;1.40;;
7493;SDS011;3788;49.902;8.590;2023-01-16T09:44:56;1.67;;;1.00;;
7493;SDS011;3788;49.902;8.590;2023-01-16T09:47:26;1.50;;;1.00;;
7493;SDS011;3788;49.902;8.590;2023-01-16T09:49:57;2.27;;;0.80;;
7493;SDS011;3788;49.902;8.590;2023-01-16T09:52:28;0.80;;;0.80;;
7493;SDS011;3788;49.902;8.590;2023-01-16T09:55:18;0.70;;;0.70;;
7493;SDS011;3788;49.902;8.590;2023-01-16T09:58:09;1.20;;;0.67;;
7493;SDS011;3788;49.902;8.590;2023-01-16T10:00:58;1.13;;;0.70;;
7493;SDS011;3788;49.902;8.590;2023-01-16T10:03:25;0.70;;;0.70;;
7493;SDS011;3788;49.902;8.590;2023-01-16T10:05:53;0.80;;;0.73;;
7493;SDS011;3788;49.902;8.590;2023-01-16T10:08:25;0.90;;;0.80;;
7493;SDS011;3788;49.902;8.590;2023-01-16T10:11:02;1.47;;;0.97;;
7493;SDS011;3788;49.902;8.590;2023-01-16T10:13:39;2.47;;;0.80;;
7493;SDS011;3788;49.902;8.590;2023-01-16T10:16:28;0.80;;;0.80;;
7493;SDS011;3788;49.902;8.590;2023-01-16T10:19:05;0.87;;;0.80;;
7493;SDS011;3788;49.902;8.590;2023-01-16T10:21:49;0.80;;;0.70;;
7493;SDS011;3788;49.902;8.590;2023-01-16T10:24:25;1.80;;;0.67;;
7493;SDS011;3788;49.902;8.590;2023-01-16T10:27:04;2.07;;;1.47;;
7493;SDS011;3788;49.902;8.590;2023-01-16T10:29:39;1.73;;;0.87;;
7493;SDS011;3788;49.902;8.590;2023-01-16T10:32:11;1.60;;;0.70;;
7493;SDS011;3788;49.902;8.590;2023-01-16T10:34:42;1.17;;;0.80;;
7493;SDS011;3788;49.902;8.590;2023-01-16T10:37:17;1.20;;;0.97;;
7493;SDS011;3788;49.902;8.590;2023-01-16T10:39:45;1.10;;;1.00;;
7493;SDS011;3788;49.902;8.590;2023-01-16T10:42:16;1.30;;;1.20;;
7493;SDS011;3788;49.902;8.590;2023-01-16T10:45:12;1.50;;;0.90;;
7493;SDS011;3788;49.902;8.590;2023-01-16T10:47:57;1.87;;;0.80;;
7493;SDS011;3788;49.902;8.590;2023-01-16T10:50:42;1.63;;;1.30;;
7493;SDS011;3788;49.902;8.590;2023-01-16T10:53:09;2.30;;;0.80;;
7493;SDS011;3788;49.902;8.590;2023-01-16T10:55:38;1.50;;;0.90;;
7493;SDS011;3788;49.902;8.590;2023-01-16T10:58:11;0.80;;;0.80;;
7493;SDS011;3788;49.902;8.590;2023-01-16T11:00:49;1.57;;;0.90;;
7493;SDS011;3788;49.902;8.590;2023-01-16T11:03:18;1.93;;;1.73;;
7493;SDS011;3788;49.902;8.590;2023-01-16T11:05:49;1.43;;;0.80;;
7493;SDS011;3788;49.902;8.590;2023-01-16T11:08:18;1.00;;;0.90;;
7493;SDS011;3788;49.902;8.590;2023-01-16T11:10:48;0.87;;;0.87;;
7493;SDS011;3788;49.902;8.590;2023-01-16T11:13:17;1.50;;;0.83;;
7493;SDS011;3788;49.902;8.590;2023-01-16T11:16:20;1.07;;;1.00;;
7493;SDS011;3788;49.902;8.590;2023-01-16T11:19:17;1.40;;;0.90;;
7493;SDS011;3788;49.902;8.590;2023-01-16T11:21:48;1.37;;;0.83;;
7493;SDS011;3788;49.902;8.590;2023-01-16T11:24:17;0.80;;;0.80;;
7493;SDS011;3788;49.902;8.590;2023-01-16T11:26:46;1.00;;;0.97;;
7493;SDS011;3788;49.902;8.590;2023-01-16T11:29:16;2.03;;;1.20;;
7493;SDS011;3788;49.902;8.590;2023-01-16T11:31:48;0.93;;;0.93;;
7493;SDS011;3788;49.902;8.590;2023-01-16T11:34:19;1.33;;;1.20;;
7493;SDS011;3788;49.902;8.590;2023-01-16T11:36:51;2.50;;;1.10;;
7493;SDS011;3788;49.902;8.590;2023-01-16T11:39:20;1.70;;;1.00;;
7493;SDS011;3788;49.902;8.590;2023-01-16T11:41:49;1.43;;;1.03;;
7493;SDS011;3788;49.902;8.590;2023-01-16T11:44:19;1.90;;;1.30;;
7493;SDS011;3788;49.902;8.590;2023-01-16T11:47:10;2.10;;;1.10;;
7493;SDS011;3788;49.902;8.590;2023-01-16T11:49:39;1.87;;;1.00;;
7493;SDS011;3788;49.902;8.590;2023-01-16T11:52:12;2.37;;;1.00;;
7493;SDS011;3788;49.902;8.590;2023-01-16T11:54:52;1.60;;;1.00;;
7493;SDS011;3788;49.902;8.590;2023-01-16T11:57:22;2.00;;;1.00;;
7493;SDS011;3788;49.902;8.590;2023-01-16T11:59:58;1.30;;;0.80;;
7493;SDS011;3788;49.902;8.590;2023-01-16T12:02:55;1.27;;;0.97;;
7493;SDS011;3788;49.902;8.590;2023-01-16T12:05:37;1.00;;;0.90;;
7493;SDS011;3788;49.902;8.590;2023-01-16T12:08:25;1.50;;;0.80;;
7493;SDS011;3788;49.902;8.590;2023-01-16T12:11:04;0.73;;;0.73;;
7493;SDS011;3788;49.902;8.590;2023-01-16T12:13:34;0.90;;;0.90;;
7493;SDS011;3788;49.902;8.590;2023-01-16T12:16:29;2.23;;;0.90;;
7493;SDS011;3788;49.902;8.590;2023-01-16T12:19:12;0.93;;;0.73;;
7493;SDS011;3788;49.902;8.590;2023-01-16T12:22:07;0.80;;;0.80;;
7493;SDS011;3788;49.902;8.590;2023-01-16T12:24:43;0.80;;;0.73;;
7493;SDS011;3788;49.902;8.590;2023-01-16T12:27:17;1.03;;;0.93;;
7493;SDS011;3788;49.902;8.590;2023-01-16T12:29:53;0.70;;;0.70;;
7493;SDS011;3788;49.902;8.590;2023-01-16T12:32:32;0.70;;;0.70;;
7493;SDS011;3788;49.902;8.590;2023-01-16T12:35:24;0.70;;;0.70;;
7493;SDS011;3788;49.902;8.590;2023-01-16T12:38:04;1.43;;;1.00;;
7493;SDS011;3788;49.902;8.590;2023-01-16T12:40:48;1.27;;;0.97;;
7493;SDS011;3788;49.902;8.590;2023-01-16T12:43:42;1.80;;;0.77;;
7493;SDS011;3788;49.902;8.590;2023-01-16T12:46:18;0.70;;;0.70;;
7493;SDS011;3788;49.902;8.590;2023-01-16T12:48:55;0.70;;;0.70;;
7493;SDS011;3788;49.902;8.590;2023-01-16T12:51:34;0.83;;;0.70;;
7493;SDS011;3788;49.902;8.590;2023-01-16T12:54:26;0.70;;;0.70;;
7493;SDS011;3788;49.902;8.590;2023-01-16T12:57:06;1.27;;;0.90;;
7493;SDS011;3788;49.902;8.590;2023-01-16T12:59:53;0.90;;;0.90;;
7493;SDS011;3788;49.902;8.590;2023-01-16T13:02:27;0.70;;;0.70;;
7493;SDS011;3788;49.902;8.590;2023-01-16T13:05:01;0.80;;;0.80;;
7493;SDS011;3788;49.902;8.590;2023-01-16T13:07:33;1.10;;;0.70;;
7493;SDS011;3788;49.902;8.590;2023-01-16T13:10:05;1.20;;;0.90;;
7493;SDS011;3788;49.902;8.590;2023-01-16T13:12:57;2.17;;;0.90;;
7493;SDS011;3788;49.902;8.590;2023-01-16T13:15:44;0.80;;;0.70;;
7493;SDS011;3788;49.902;8.590;2023-01-16T13:18:17;0.60;;;0.60;;
7493;SDS011;3788;49.902;8.590;2023-01-16T13:20:47;1.00;;;0.90;;
7493;SDS011;3788;49.902;8.590;2023-01-16T13:23:19;0.60;;;0.60;;
7493;SDS011;3788;49.902;8.590;2023-01-16T13:25:49;0.70;;;0.70;;
7493;SDS011;3788;49.902;8.590;2023-01-16T13:28:23;0.70;;;0.70;;
7493;SDS011;3788;49.902;8.590;2023-01-16T13:30:56;0.77;;;0.70;;
7493;SDS011;3788;49.902;8.590;2023-01-16T13:33:26;0.67;;;0.67;;
7493;SDS011;3788;49.902;8.590;2023-01-16T13:35:59;0.70;;;0.70;;
7493;SDS011;3788;49.902;8.590;2023-01-16T13:38:38;1.17;;;0.67;;
7493;SDS011;3788;49.902;8.590;2023-01-16T13:41:14;1.47;;;0.83;;
7493;SDS011;3788;49.902;8.590;2023-01-16T13:43:48;0.63;;;0.63;;
7493;SDS011;3788;49.902;8.590;2023-01-16T13:46:40;1.00;;;0.90;;
7493;SDS011;3788;49.902;8.590;2023-01-16T13:49:07;0.70;;;0.70;;
7493;SDS011;3788;49.902;8.590;2023-01-16T13:51:42;1.33;;;0.70;;
7493;SDS011;3788;49.902;8.590;2023-01-16T13:54:13;1.43;;;0.93;;
7493;SDS011;3788;49.902;8.590;2023-01-16T13:56:49;0.80;;;0.80;;
7493;SDS011;3788;49.902;8.590;2023-01-16T14:05:15;1.13;;;1.03;;
7493;SDS011;3788;49.902;8.590;2023-01-16T14:07:49;0.60;;;0.60;;
7493;SDS011;3788;49.902;8.590;2023-01-16T14:10:48;0.60;;;0.60;;
7493;SDS011;3788;49.902;8.590;2023-01-16T14:13:31;0.90;;;0.70;;
7493;SDS011;3788;49.902;8.590;2023-01-16T14:15:59;0.63;;;0.63;;
7493;SDS011;3788;49.902;8.590;2023-01-16T14:18:57;0.80;;;0.80;;
7493;SDS011;3788;49.902;8.590;2023-01-16T14:21:26;0.60;;;0.60;;
7493;SDS011;3788;49.902;8.590;2023-01-16T14:23:54;1.07;;;0.57;;
7493;SDS011;3788;49.902;8.590;2023-01-16T14:26:38;0.50;;;0.50;;
7493;SDS011;3788;49.902;8.590;2023-01-16T14:29:12;0.70;;;0.70;;
7493;SDS011;3788;49.902;8.590;2023-01-16T14:31:44;0.90;;;0.90;;
7493;SDS011;3788;49.902;8.590;2023-01-16T14:34:17;0.90;;;0.60;;
7493;SDS011;3788;49.902;8.590;2023-01-16T14:36:47;0.87;;;0.80;;
7493;SDS011;3788;49.902;8.590;2023-01-16T14:39:27;0.70;;;0.70;;
7493;SDS011;3788;49.902;8.590;2023-01-16T14:42:00;0.60;;;0.60;;
7493;SDS011;3788;49.902;8.590;2023-01-16T14:48:12;0.87;;;0.80;;
7493;SDS011;3788;49.902;8.590;2023-01-16T14:50:59;0.60;;;0.60;;
7493;SDS011;3788;49.902;8.590;2023-01-16T14:53:51;0.70;;;0.70;;
7493;SDS011;3788;49.902;8.590;2023-01-16T14:56:38;0.63;;;0.63;;
7493;SDS011;3788;49.902;8.590;2023-01-16T14:59:07;0.63;;;0.63;;
7493;SDS011;3788;49.902;8.590;2023-01-16T15:01:40;0.70;;;0.70;;
7493;SDS011;3788;49.902;8.590;2023-01-16T15:04:30;0.93;;;0.60;;
7493;SDS011;3788;49.902;8.590;2023-01-16T15:07:04;1.17;;;0.70;;
7493;SDS011;3788;49.902;8.590;2023-01-16T15:09:32;1.90;;;0.97;;
7493;SDS011;3788;49.902;8.590;2023-01-16T15:12:09;0.70;;;0.70;;
7493;SDS011;3788;49.902;8.590;2023-01-16T15:14:41;0.90;;;0.70;;
7493;SDS011;3788;49.902;8.590;2023-01-16T15:17:18;0.80;;;0.80;;
7493;SDS011;3788;49.902;8.590;2023-01-16T15:20:15;0.80;;;0.73;;
7493;SDS011;3788;49.902;8.590;2023-01-16T15:23:03;1.13;;;0.73;;
7493;SDS011;3788;49.902;8.590;2023-01-16T15:25:49;2.70;;;1.27;;
7493;SDS011;3788;49.902;8.590;2023-01-16T15:28:42;1.20;;;1.10;;
7493;SDS011;3788;49.902;8.590;2023-01-16T15:31:18;1.50;;;1.10;;
7493;SDS011;3788;49.902;8.590;2023-01-16T15:33:57;1.43;;;0.90;;
7493;SDS011;3788;49.902;8.590;2023-01-16T15:36:25;1.53;;;1.23;;
7493;SDS011;3788;49.902;8.590;2023-01-16T15:38:58;2.20;;;1.27;;
7493;SDS011;3788;49.902;8.590;2023-01-16T15:41:26;2.00;;;1.07;;
7493;SDS011;3788;49.902;8.590;2023-01-16T15:44:13;2.37;;;1.20;;
7493;SDS011;3788;49.902;8.590;2023-01-16T15:47:04;1.43;;;1.00;;
7493;SDS011;3788;49.902;8.590;2023-01-16T15:49:49;1.87;;;1.33;;
7493;SDS011;3788;49.902;8.590;2023-01-16T15:52:26;1.60;;;1.23;;
7493;SDS011;3788;49.902;8.590;2023-01-16T15:54:54;1.30;;;1.20;;
7493;SDS011;3788;49.902;8.590;2023-01-16T15:57:21;1.90;;;1.27;;
7493;SDS011;3788;49.902;8.590;2023-01-16T15:59:49;1.13;;;0.80;;
7493;SDS011;3788;49.902;8.590;2023-01-16T16:02:19;1.87;;;1.30;;
7493;SDS011;3788;49.902;8.590;2023-01-16T16:04:49;1.67;;;1.00;;
7493;SDS011;3788;49.902;8.590;2023-01-16T16:07:19;1.90;;;1.60;;